createdAt,value
2023-05-10T00:00:17.917Z,2.9
2023-05-10T00:00:48.231Z,2.9
2023-05-10T00:01:11.761Z,2.9
2023-05-10T00:01:48.606Z,2.9
2023-05-10T00:02:19.966Z,1.1
2023-05-10T00:02:43.022Z,1.1
2023-05-10T00:03:05.303Z,1.1
2023-05-10T00:03:39.908Z,1.1
2023-05-10T00:04:12.059Z,1.1
2023-05-10T00:04:43.700Z,1.1
2023-05-10T00:05:15.329Z,1.1
2023-05-10T00:05:47.878Z,1.1
2023-05-10T00:06:19.751Z,1.1
2023-05-10T00:06:43.365Z,1.1
2023-05-10T00:07:05.724Z,1.1
2023-05-10T00:07:39.910Z,2.9
2023-05-10T00:08:11.641Z,2.9
2023-05-10T00:08:43.801Z,2.9
2023-05-10T00:09:15.399Z,2.9
2023-05-10T00:09:47.797Z,2.9
2023-05-10T00:10:19.836Z,1.8
2023-05-10T00:10:42.797Z,1.8
2023-05-10T00:11:05.077Z,1.8
2023-05-10T00:11:39.996Z,1.8
2023-05-10T00:12:11.950Z,1.8
2023-05-10T00:12:43.796Z,1.8
2023-05-10T00:13:20.836Z,1.8
2023-05-10T00:13:47.934Z,1.8
2023-05-10T00:14:19.969Z,1.8
2023-05-10T00:14:42.531Z,1.8
2023-05-10T00:15:04.997Z,1.8
2023-05-10T00:15:39.842Z,1.8
2023-05-10T00:16:11.783Z,1.8
2023-05-10T00:16:43.817Z,1.8
2023-05-10T00:17:15.726Z,1.8
2023-05-10T00:17:48.038Z,1.8
2023-05-10T00:18:19.757Z,0
2023-05-10T00:18:42.594Z,0
2023-05-10T00:19:04.850Z,0
2023-05-10T00:19:39.835Z,0
2023-05-10T00:20:11.696Z,0
2023-05-10T00:20:43.620Z,0
2023-05-10T00:21:15.177Z,0
2023-05-10T00:21:47.709Z,1.1
2023-05-10T00:22:19.855Z,1.1
2023-05-10T00:22:43.138Z,1.1
2023-05-10T00:23:23.812Z,1.1
2023-05-10T00:23:46.594Z,1.1
2023-05-10T00:24:09.249Z,1.1
2023-05-10T00:24:43.963Z,1.1
2023-05-10T00:25:15.393Z,1.1
2023-05-10T00:25:47.759Z,1.1
2023-05-10T00:26:19.629Z,1.1
2023-05-10T00:26:42.355Z,1.1
2023-05-10T00:27:04.765Z,1.1
2023-05-10T00:27:41.494Z,1.1
2023-05-10T00:28:11.602Z,1.1
2023-05-10T00:28:43.729Z,1.1
2023-05-10T00:29:15.385Z,1.1
2023-05-10T00:29:48.003Z,1.1
2023-05-10T00:30:19.767Z,1.1
2023-05-10T00:30:42.337Z,1.1
2023-05-10T00:31:04.745Z,1.1
2023-05-10T00:31:40.223Z,1.1
2023-05-10T00:32:12.006Z,1.1
2023-05-10T00:32:43.682Z,0
2023-05-10T00:33:15.402Z,0
2023-05-10T00:33:48.040Z,1.8
2023-05-10T00:34:19.634Z,1.8
2023-05-10T00:34:42.559Z,1.8
2023-05-10T00:35:04.908Z,1.8
2023-05-10T00:35:39.865Z,1.8
2023-05-10T00:36:11.870Z,1.8
2023-05-10T00:36:43.687Z,1.8
2023-05-10T00:37:15.823Z,1.8
2023-05-10T00:37:47.808Z,1.8
2023-05-10T00:38:19.763Z,1.8
2023-05-10T00:38:43.086Z,1.8
2023-05-10T00:39:05.167Z,2.9
2023-05-10T00:39:39.770Z,2.9
2023-05-10T00:40:14.476Z,2.9
2023-05-10T00:40:44.255Z,2.9
2023-05-10T00:41:15.382Z,4.8
2023-05-10T00:41:48.074Z,4.8
2023-05-10T00:42:19.741Z,4.8
2023-05-10T00:42:42.580Z,4.8
2023-05-10T00:43:05.461Z,4.8
2023-05-10T00:43:39.730Z,4.8
2023-05-10T00:44:11.795Z,4.8
2023-05-10T00:44:43.787Z,2.9
2023-05-10T00:45:15.302Z,4.1
2023-05-10T00:45:47.975Z,4.1
2023-05-10T00:46:19.736Z,4.1
2023-05-10T00:46:43.151Z,4.1
2023-05-10T00:47:05.564Z,4.1
2023-05-10T00:47:40.077Z,4.1
2023-05-10T00:48:13.314Z,4.1
2023-05-10T00:48:43.894Z,4.1
2023-05-10T00:49:15.855Z,2.9
2023-05-10T00:49:48.139Z,2.9
2023-05-10T00:50:19.883Z,2.9
2023-05-10T00:50:42.774Z,2.9
2023-05-10T00:51:05.290Z,2.9
2023-05-10T00:51:39.676Z,2.9
2023-05-10T00:52:13.531Z,2.9
2023-05-10T00:52:43.941Z,2.9
2023-05-10T00:53:15.861Z,2.9
2023-05-10T00:53:49.281Z,2.9
2023-05-10T00:54:20.298Z,2.9
2023-05-10T00:54:42.863Z,2.9
2023-05-10T00:55:05.337Z,2.9
2023-05-10T00:55:39.741Z,2.9
2023-05-10T00:56:11.611Z,3.6
2023-05-10T00:56:43.801Z,3.6
2023-05-10T00:57:15.740Z,3.6
2023-05-10T00:57:47.837Z,4.8
2023-05-10T00:58:19.846Z,6.6
2023-05-10T00:58:42.922Z,7.7
2023-05-10T00:59:05.884Z,7.7
2023-05-10T00:59:40.305Z,9.6
2023-05-10T01:00:11.945Z,12.5
2023-05-10T01:00:43.776Z,13.7
2023-05-10T01:01:15.343Z,18.5
2023-05-10T01:01:47.979Z,21.5
2023-05-10T01:02:27.527Z,24.6
2023-05-10T01:02:54.844Z,25.8
2023-05-10T01:03:40.162Z,25.8
2023-05-10T01:04:11.870Z,27.6
2023-05-10T01:04:43.928Z,27.6
2023-05-10T01:05:15.331Z,27.6
2023-05-10T01:05:47.630Z,27.6
2023-05-10T01:06:19.691Z,25.8
2023-05-10T01:06:42.417Z,25.8
2023-05-10T01:07:04.691Z,27.0
2023-05-10T01:07:40.184Z,27.0
2023-05-10T01:08:11.902Z,27.0
2023-05-10T01:08:43.575Z,24.0
2023-05-10T01:09:15.232Z,24.6
2023-05-10T01:09:47.669Z,24.6
2023-05-10T01:10:19.687Z,19.8
2023-05-10T01:10:42.595Z,18.0
2023-05-10T01:11:05.124Z,18.0
2023-05-10T01:11:39.715Z,18.0
2023-05-10T01:12:12.199Z,18.0
2023-05-10T01:12:43.945Z,7.7
2023-05-10T01:13:16.887Z,7.7
2023-05-10T01:13:47.693Z,7.7
2023-05-10T01:14:19.955Z,5.9
2023-05-10T01:14:42.691Z,5.9
2023-05-10T01:15:05.265Z,7.1
2023-05-10T01:15:39.742Z,7.1
2023-05-10T01:16:11.832Z,7.1
2023-05-10T01:16:43.704Z,7.7
2023-05-10T01:17:15.640Z,7.7
2023-05-10T01:17:47.650Z,7.7
2023-05-10T01:18:19.636Z,8.9
2023-05-10T01:18:42.564Z,8.9
2023-05-10T01:19:04.946Z,8.9
2023-05-10T01:19:39.813Z,8.9
2023-05-10T01:20:11.627Z,8.9
2023-05-10T01:20:43.593Z,8.9
2023-05-10T01:21:15.250Z,9.6
2023-05-10T01:21:47.553Z,9.6
2023-05-10T01:22:19.677Z,9.6
2023-05-10T01:22:42.800Z,9.6
2023-05-10T01:23:05.127Z,9.6
2023-05-10T01:23:39.686Z,7.7
2023-05-10T01:24:11.589Z,8.9
2023-05-10T01:24:43.654Z,8.9
2023-05-10T01:25:15.308Z,7.7
2023-05-10T01:25:47.908Z,7.7
2023-05-10T01:26:19.669Z,7.7
2023-05-10T01:26:42.771Z,7.7
2023-05-10T01:27:04.990Z,7.7
2023-05-10T01:27:39.866Z,5.9
2023-05-10T01:28:11.773Z,5.9
2023-05-10T01:28:43.775Z,4.8
2023-05-10T01:29:15.509Z,4.8
2023-05-10T01:29:47.683Z,4.8
2023-05-10T01:30:42.445Z,4.8
2023-05-10T01:31:04.970Z,4.8
2023-05-10T01:31:41.278Z,4.8
2023-05-10T01:32:11.555Z,4.8
2023-05-10T01:32:44.002Z,2.9
2023-05-10T01:33:15.345Z,2.9
2023-05-10T01:33:48.154Z,2.9
2023-05-10T01:34:19.662Z,1.8
2023-05-10T01:34:43.608Z,1.8
2023-05-10T01:35:05.559Z,1.8
2023-05-10T01:35:41.689Z,1.8
2023-05-10T01:36:11.570Z,1.8
2023-05-10T01:36:44.251Z,2.9
2023-05-10T01:37:15.623Z,2.9
2023-05-10T01:37:47.692Z,2.9
2023-05-10T01:38:19.875Z,2.9
2023-05-10T01:38:42.325Z,2.9
2023-05-10T01:39:04.717Z,2.9
2023-05-10T01:39:41.275Z,2.9
2023-05-10T01:40:11.694Z,2.9
2023-05-10T01:40:43.608Z,1.1
2023-05-10T01:41:15.278Z,1.1
2023-05-10T01:41:47.884Z,1.1
2023-05-10T01:42:19.648Z,1.1
2023-05-10T01:42:43.083Z,1.1
2023-05-10T01:43:05.614Z,1.1
2023-05-10T01:43:41.744Z,2.9
2023-05-10T01:44:11.792Z,2.9
2023-05-10T01:44:43.565Z,2.9
2023-05-10T01:45:15.397Z,2.9
2023-05-10T01:45:47.688Z,2.9
2023-05-10T01:46:19.729Z,2.9
2023-05-10T01:46:43.218Z,2.9
2023-05-10T01:47:04.925Z,2.9
2023-05-10T01:47:39.718Z,1.8
2023-05-10T01:48:11.896Z,1.8
2023-05-10T01:48:43.945Z,1.8
2023-05-10T01:49:15.465Z,1.8
2023-05-10T01:49:47.798Z,1.8
2023-05-10T01:50:19.761Z,1.8
2023-05-10T01:50:42.970Z,1.8
2023-05-10T01:51:05.215Z,1.8
2023-05-10T01:51:39.865Z,1.8
2023-05-10T01:52:11.767Z,1.8
2023-05-10T01:52:44.009Z,1.8
2023-05-10T01:53:15.253Z,1.8
2023-05-10T01:53:47.726Z,1.8
2023-05-10T01:54:19.683Z,0
2023-05-10T01:54:43.685Z,0
2023-05-10T01:55:05.916Z,0
2023-05-10T01:55:39.744Z,1.1
2023-05-10T01:56:12.130Z,1.1
2023-05-10T01:56:44.675Z,1.1
2023-05-10T01:57:15.504Z,1.1
2023-05-10T01:57:47.853Z,1.1
2023-05-10T01:58:19.802Z,1.1
2023-05-10T01:58:44.227Z,1.1
2023-05-10T01:59:05.440Z,1.1
2023-05-10T01:59:39.719Z,1.1
2023-05-10T02:00:21.917Z,1.1
2023-05-10T02:00:44.581Z,1.1
2023-05-10T02:01:15.370Z,1.1
2023-05-10T02:02:48.083Z,1.1
2023-05-10T02:03:24.710Z,1.1
2023-05-10T02:03:49.643Z,1.1
2023-05-10T02:04:10.094Z,1.1
2023-05-10T02:04:45.282Z,1.1
2023-05-10T02:05:15.900Z,1.1
2023-05-10T02:05:48.309Z,1.1
2023-05-10T02:06:19.763Z,0
2023-05-10T02:06:42.427Z,0
2023-05-10T02:07:05.538Z,0
2023-05-10T02:07:39.794Z,0
2023-05-10T02:08:11.774Z,0
2023-05-10T02:08:45.945Z,0
2023-05-10T02:09:16.328Z,0
2023-05-10T02:09:47.662Z,0
2023-05-10T02:10:19.692Z,0
2023-05-10T02:10:42.427Z,0
2023-05-10T02:11:04.870Z,0
2023-05-10T02:11:43.383Z,0
2023-05-10T02:12:05.749Z,1.8
2023-05-10T02:12:44.041Z,1.8
2023-05-10T02:13:17.893Z,1.8
2023-05-10T02:13:47.657Z,1.8
2023-05-10T02:14:19.708Z,1.8
2023-05-10T02:14:43.075Z,1.8
2023-05-10T02:15:05.423Z,1.8
2023-05-10T02:15:39.643Z,1.8
2023-05-10T02:16:11.664Z,1.8
2023-05-10T02:16:43.763Z,1.8
2023-05-10T02:17:15.243Z,1.8
2023-05-10T02:17:47.716Z,1.8
2023-05-10T02:18:19.728Z,1.8
2023-05-10T02:18:48.042Z,1.8
2023-05-10T02:19:04.930Z,1.8
2023-05-10T02:19:39.922Z,1.8
2023-05-10T02:20:11.773Z,1.8
2023-05-10T02:20:43.630Z,1.8
2023-05-10T02:21:15.308Z,1.8
2023-05-10T02:21:48.005Z,1.8
2023-05-10T02:22:19.511Z,0
2023-05-10T02:22:42.339Z,0
2023-05-10T02:23:04.630Z,0
2023-05-10T02:23:39.416Z,0
2023-05-10T02:24:11.655Z,0
2023-05-10T02:24:43.673Z,0
2023-05-10T02:25:15.676Z,0
2023-05-10T02:25:48.564Z,0
2023-05-10T02:26:20.014Z,0
2023-05-10T02:26:43.573Z,0
2023-05-10T02:27:05.900Z,0
2023-05-10T02:27:39.576Z,0
2023-05-10T02:28:11.557Z,0
2023-05-10T02:28:43.556Z,0
2023-05-10T02:29:15.415Z,0
2023-05-10T02:29:49.966Z,0
2023-05-10T02:30:20.031Z,0
2023-05-10T02:30:43.258Z,0
2023-05-10T02:31:05.643Z,0
2023-05-10T02:31:39.953Z,0
2023-05-10T02:32:11.749Z,0
2023-05-10T02:32:43.590Z,0
2023-05-10T02:33:15.471Z,0
2023-05-10T02:33:50.029Z,0
2023-05-10T02:34:19.418Z,0
2023-05-10T02:34:42.749Z,0
2023-05-10T02:35:05.103Z,0
2023-05-10T02:35:39.565Z,0
2023-05-10T02:36:11.544Z,0
2023-05-10T02:36:43.585Z,0
2023-05-10T02:37:15.388Z,0
2023-05-10T02:37:47.688Z,0
2023-05-10T02:38:19.428Z,0
2023-05-10T02:38:42.111Z,0
2023-05-10T02:39:04.529Z,0
2023-05-10T02:39:39.734Z,0
2023-05-10T02:40:11.766Z,0
2023-05-10T02:40:43.690Z,0
2023-05-10T02:41:15.354Z,0
2023-05-10T02:41:47.643Z,0
2023-05-10T02:42:19.543Z,0
2023-05-10T02:42:42.362Z,0
2023-05-10T02:43:04.786Z,0
2023-05-10T02:43:39.648Z,0
2023-05-10T02:44:11.611Z,0
2023-05-10T02:44:43.485Z,0
2023-05-10T02:45:15.294Z,0
2023-05-10T02:45:47.559Z,0
2023-05-10T02:46:19.750Z,0
2023-05-10T02:46:42.706Z,0
2023-05-10T02:47:04.883Z,0
2023-05-10T02:47:39.833Z,0
2023-05-10T02:48:11.546Z,0
2023-05-10T02:48:43.526Z,0
2023-05-10T02:49:15.218Z,0
2023-05-10T02:49:47.964Z,0
2023-05-10T02:50:19.656Z,0
2023-05-10T02:50:42.421Z,0
2023-05-10T02:51:04.907Z,0
2023-05-10T02:51:39.542Z,0
2023-05-10T02:52:11.422Z,0
2023-05-10T02:52:43.546Z,0
2023-05-10T02:53:15.522Z,0
2023-05-10T02:53:47.808Z,1.1
2023-05-10T02:54:19.588Z,1.1
2023-05-10T02:54:43.691Z,1.1
2023-05-10T02:55:06.227Z,1.1
2023-05-10T02:55:39.713Z,1.1
2023-05-10T02:56:11.609Z,1.1
2023-05-10T02:56:43.474Z,1.1
2023-05-10T02:57:15.401Z,1.1
2023-05-10T02:57:47.707Z,1.1
2023-05-10T02:58:19.856Z,1.1
2023-05-10T02:58:43.526Z,1.1
2023-05-10T02:59:05.748Z,1.1
2023-05-10T02:59:39.811Z,1.1
2023-05-10T03:00:11.914Z,1.1
2023-05-10T03:00:43.640Z,1.1
2023-05-10T03:01:15.589Z,1.1
2023-05-10T03:01:47.589Z,1.1
2023-05-10T03:02:19.889Z,1.1
2023-05-10T03:02:42.694Z,1.1
2023-05-10T03:03:04.982Z,1.1
2023-05-10T03:03:39.606Z,1.1
2023-05-10T03:04:11.573Z,1.1
2023-05-10T03:04:43.512Z,0
2023-05-10T03:05:15.523Z,0
2023-05-10T03:05:47.702Z,0
2023-05-10T03:06:19.534Z,0
2023-05-10T03:06:42.406Z,0
2023-05-10T03:07:04.764Z,0
2023-05-10T03:07:39.738Z,0
2023-05-10T03:08:11.462Z,0
2023-05-10T03:08:43.643Z,0
2023-05-10T03:09:15.570Z,0
2023-05-10T03:09:47.589Z,0
2023-05-10T03:10:19.642Z,0
2023-05-10T03:10:42.180Z,0
2023-05-10T03:11:04.577Z,0
2023-05-10T03:11:39.795Z,0
2023-05-10T03:12:11.755Z,0
2023-05-10T03:12:43.555Z,0
2023-05-10T03:13:16.851Z,0
2023-05-10T03:13:47.628Z,0
2023-05-10T03:14:19.501Z,0
2023-05-10T03:14:42.180Z,0
2023-05-10T03:15:04.724Z,0
2023-05-10T03:15:39.550Z,0
2023-05-10T03:16:11.627Z,0
2023-05-10T03:16:45.049Z,0
2023-05-10T03:17:15.228Z,0
2023-05-10T03:17:47.518Z,0
2023-05-10T03:18:19.792Z,0
2023-05-10T03:18:42.407Z,0
2023-05-10T03:19:04.925Z,0
2023-05-10T03:19:39.797Z,0
2023-05-10T03:20:11.658Z,0
2023-05-10T03:20:43.642Z,0
2023-05-10T03:21:15.324Z,0
2023-05-10T03:21:47.901Z,0
2023-05-10T03:22:19.527Z,0
2023-05-10T03:22:42.748Z,0
2023-05-10T03:23:05.104Z,0
2023-05-10T03:23:39.595Z,0
2023-05-10T03:24:11.602Z,0
2023-05-10T03:24:43.836Z,0
2023-05-10T03:25:15.389Z,0
2023-05-10T03:25:47.749Z,1.8
2023-05-10T03:26:19.535Z,1.8
2023-05-10T03:26:42.262Z,1.8
2023-05-10T03:27:17.704Z,1.8
2023-05-10T03:27:47.185Z,1.8
2023-05-10T03:28:09.849Z,1.8
2023-05-10T03:28:43.556Z,1.8
2023-05-10T03:29:15.446Z,1.8
2023-05-10T03:29:47.718Z,1.8
2023-05-10T03:30:19.792Z,1.8
2023-05-10T03:30:42.512Z,1.8
2023-05-10T03:31:04.749Z,1.8
2023-05-10T03:31:40.258Z,1.8
2023-05-10T03:32:11.753Z,1.8
2023-05-10T03:32:43.533Z,1.8
2023-05-10T03:33:15.283Z,1.8
2023-05-10T03:33:47.881Z,1.8
2023-05-10T03:34:19.518Z,1.8
2023-05-10T03:34:42.381Z,1.8
2023-05-10T03:35:04.655Z,1.8
2023-05-10T03:35:39.563Z,1.8
2023-05-10T03:36:11.450Z,1.8
2023-05-10T03:36:43.399Z,0
2023-05-10T03:37:15.455Z,0
2023-05-10T03:37:47.534Z,0
2023-05-10T03:38:19.484Z,0
2023-05-10T03:38:42.425Z,0
2023-05-10T03:39:04.932Z,0
2023-05-10T03:39:39.490Z,0
2023-05-10T03:40:11.403Z,0
2023-05-10T03:40:43.788Z,0
2023-05-10T03:41:15.244Z,0
2023-05-10T03:41:47.385Z,0
2023-05-10T03:42:19.339Z,0
2023-05-10T03:42:42.084Z,0
2023-05-10T03:43:04.512Z,0
2023-05-10T03:43:39.743Z,0
2023-05-10T03:44:11.341Z,0
2023-05-10T03:44:43.507Z,0
2023-05-10T03:45:15.397Z,0
2023-05-10T03:45:48.003Z,0
2023-05-10T03:46:19.571Z,0
2023-05-10T03:46:42.417Z,0
2023-05-10T03:47:04.873Z,0
2023-05-10T03:47:39.483Z,0
2023-05-10T03:48:11.456Z,0
2023-05-10T03:48:43.670Z,0
2023-05-10T03:49:15.472Z,0
2023-05-10T03:49:47.735Z,0
2023-05-10T03:50:20.227Z,0
2023-05-10T03:50:43.365Z,0
2023-05-10T03:51:05.719Z,0
2023-05-10T03:51:39.501Z,0
2023-05-10T03:52:11.814Z,0
2023-05-10T03:52:43.342Z,0
2023-05-10T03:53:15.256Z,0
2023-05-10T03:53:47.778Z,0
2023-05-10T03:54:21.000Z,0
2023-05-10T03:54:42.483Z,0
2023-05-10T03:55:05.309Z,0
2023-05-10T03:55:39.613Z,0
2023-05-10T03:56:11.703Z,0
2023-05-10T03:56:43.809Z,0
2023-05-10T03:57:15.517Z,0
2023-05-10T03:57:47.714Z,0
2023-05-10T03:58:19.349Z,0
2023-05-10T03:58:42.192Z,0
2023-05-10T03:59:04.776Z,0
2023-05-10T03:59:39.796Z,0
2023-05-10T04:00:12.883Z,0
2023-05-10T04:00:43.439Z,0
2023-05-10T04:01:15.353Z,0
2023-05-10T04:01:47.677Z,0
2023-05-10T04:02:20.264Z,0
2023-05-10T04:02:46.363Z,0
2023-05-10T04:03:06.428Z,0
2023-05-10T04:03:40.142Z,0
2023-05-10T04:04:11.872Z,0
2023-05-10T04:04:43.554Z,0
2023-05-10T04:05:15.372Z,0
2023-05-10T04:05:47.666Z,1.1
2023-05-10T04:06:19.613Z,1.1
2023-05-10T04:06:42.643Z,1.1
2023-05-10T04:07:05.397Z,1.1
2023-05-10T04:07:39.511Z,1.1
2023-05-10T04:08:11.983Z,1.1
2023-05-10T04:08:43.736Z,1.1
2023-05-10T04:09:15.912Z,1.1
2023-05-10T04:09:47.604Z,1.1
2023-05-10T04:10:19.788Z,1.1
2023-05-10T04:10:43.729Z,1.1
2023-05-10T04:11:05.826Z,1.1
2023-05-10T04:11:39.650Z,1.1
2023-05-10T04:12:11.698Z,1.1
2023-05-10T04:12:43.817Z,1.1
2023-05-10T04:13:16.467Z,1.1
2023-05-10T04:13:47.574Z,1.1
2023-05-10T04:14:19.473Z,1.1
2023-05-10T04:14:42.285Z,1.1
2023-05-10T04:15:06.404Z,1.1
2023-05-10T04:15:39.711Z,1.1
2023-05-10T04:16:11.671Z,1.1
2023-05-10T04:16:43.645Z,0
2023-05-10T04:17:15.651Z,0
2023-05-10T04:17:47.504Z,0
2023-05-10T04:18:19.370Z,0
2023-05-10T04:18:42.303Z,0
2023-05-10T04:19:06.303Z,0
2023-05-10T04:19:39.740Z,0
2023-05-10T04:20:11.887Z,1.8
2023-05-10T04:20:43.455Z,1.8
2023-05-10T04:21:15.777Z,1.8
2023-05-10T04:21:47.557Z,1.8
2023-05-10T04:22:19.559Z,1.8
2023-05-10T04:22:42.420Z,1.8
2023-05-10T04:23:06.667Z,1.8
2023-05-10T04:23:39.496Z,1.8
2023-05-10T04:24:12.311Z,1.8
2023-05-10T04:24:43.684Z,1.8
2023-05-10T04:25:15.634Z,1.8
2023-05-10T04:25:47.493Z,1.8
2023-05-10T04:26:19.647Z,1.8
2023-05-10T04:26:42.599Z,1.8
2023-05-10T04:27:07.771Z,1.8
2023-05-10T04:27:40.007Z,1.8
2023-05-10T04:28:11.692Z,1.8
2023-05-10T04:28:43.675Z,1.8
2023-05-10T04:29:15.454Z,1.8
2023-05-10T04:29:47.880Z,1.8
2023-05-10T04:30:19.474Z,0
2023-05-10T04:30:42.423Z,0
2023-05-10T04:31:04.884Z,0
2023-05-10T04:31:39.694Z,0
2023-05-10T04:32:11.381Z,0
2023-05-10T04:32:43.857Z,0
2023-05-10T04:33:15.425Z,0
2023-05-10T04:33:47.394Z,0
2023-05-10T04:34:19.758Z,0
2023-05-10T04:34:42.611Z,0
2023-05-10T04:35:04.820Z,0
2023-05-10T04:35:39.375Z,0
2023-05-10T04:36:11.557Z,0
2023-05-10T04:36:43.472Z,1.1
2023-05-10T04:37:15.590Z,1.1
2023-05-10T04:37:47.483Z,1.1
2023-05-10T04:38:19.523Z,1.1
2023-05-10T04:38:42.305Z,1.1
2023-05-10T04:39:04.757Z,1.1
2023-05-10T04:39:40.972Z,1.1
2023-05-10T04:40:11.608Z,1.1
2023-05-10T04:40:43.682Z,1.1
2023-05-10T04:41:15.554Z,1.1
2023-05-10T04:41:47.418Z,1.1
2023-05-10T04:42:19.504Z,1.1
2023-05-10T04:42:42.399Z,1.1
2023-05-10T04:43:04.951Z,1.1
2023-05-10T04:43:39.786Z,1.1
2023-05-10T04:44:11.508Z,1.1
2023-05-10T04:44:43.614Z,1.1
2023-05-10T04:45:15.506Z,1.1
2023-05-10T04:45:47.678Z,1.1
2023-05-10T04:46:19.531Z,1.1
2023-05-10T04:46:42.369Z,1.1
2023-05-10T04:47:04.440Z,1.1
2023-05-10T04:47:39.879Z,0
2023-05-10T04:48:11.468Z,0
2023-05-10T04:48:43.737Z,0
2023-05-10T04:49:15.418Z,0
2023-05-10T04:49:47.678Z,0
2023-05-10T04:50:19.491Z,0
2023-05-10T04:50:42.422Z,0
2023-05-10T04:51:04.986Z,0
2023-05-10T04:51:39.454Z,0
2023-05-10T04:52:11.502Z,0
2023-05-10T04:52:43.706Z,0
2023-05-10T04:53:16.038Z,0
2023-05-10T04:54:01.641Z,0
2023-05-10T04:54:19.467Z,0
2023-05-10T04:54:43.254Z,0
2023-05-10T04:55:05.628Z,0
2023-05-10T04:55:39.655Z,0
2023-05-10T04:56:11.502Z,0
2023-05-10T04:56:44.329Z,0
2023-05-10T04:57:15.915Z,0
2023-05-10T04:57:48.573Z,0
2023-05-10T04:58:20.907Z,0
2023-05-10T04:58:43.552Z,0
2023-05-10T04:59:06.093Z,0
2023-05-10T04:59:39.584Z,0
2023-05-10T05:00:21.548Z,0
2023-05-10T05:00:40.478Z,0
2023-05-10T05:01:15.698Z,0
2023-05-10T05:01:47.686Z,0
2023-05-10T05:02:19.593Z,0
2023-05-10T05:02:43.266Z,0
2023-05-10T05:03:05.254Z,0
2023-05-10T05:03:39.694Z,1.8
2023-05-10T05:04:12.980Z,1.8
2023-05-10T05:04:43.683Z,1.8
2023-05-10T05:05:15.913Z,1.8
2023-05-10T05:05:47.388Z,1.8
2023-05-10T05:06:19.952Z,1.8
2023-05-10T05:06:43.064Z,1.8
2023-05-10T05:07:05.433Z,1.8
2023-05-10T05:07:39.638Z,1.8
2023-05-10T05:08:13.926Z,1.8
2023-05-10T05:08:43.495Z,1.8
2023-05-10T05:09:15.545Z,1.8
2023-05-10T05:09:47.471Z,1.8
2023-05-10T05:10:19.977Z,1.8
2023-05-10T05:10:43.030Z,1.8
2023-05-10T05:11:05.424Z,1.8
2023-05-10T05:11:39.507Z,1.8
2023-05-10T05:12:14.299Z,1.8
2023-05-10T05:12:43.891Z,1.8
2023-05-10T05:13:17.044Z,1.8
2023-05-10T05:13:47.475Z,1.8
2023-05-10T05:14:19.445Z,0
2023-05-10T05:14:42.248Z,0
2023-05-10T05:15:04.847Z,0
2023-05-10T05:15:41.278Z,0
2023-05-10T05:16:11.473Z,0
2023-05-10T05:16:43.696Z,0
2023-05-10T05:17:15.531Z,0
2023-05-10T05:17:47.502Z,0
2023-05-10T05:18:19.458Z,0
2023-05-10T05:18:42.328Z,0
2023-05-10T05:19:05.220Z,0
2023-05-10T05:19:39.605Z,0
2023-05-10T05:20:11.327Z,0
2023-05-10T05:20:43.458Z,0
2023-05-10T05:21:16.025Z,0
2023-05-10T05:21:47.320Z,0
2023-05-10T05:22:19.804Z,0
2023-05-10T05:22:43.112Z,0
2023-05-10T05:23:05.153Z,0
2023-05-10T05:23:39.723Z,0
2023-05-10T05:24:11.453Z,0
2023-05-10T05:24:43.444Z,0
2023-05-10T05:25:16.642Z,0
2023-05-10T05:25:47.425Z,0
2023-05-10T05:26:19.615Z,0
2023-05-10T05:26:42.373Z,0
2023-05-10T05:27:04.462Z,0
2023-05-10T05:27:39.526Z,0
2023-05-10T05:28:11.430Z,0
2023-05-10T05:28:43.663Z,0
2023-05-10T05:29:17.483Z,0
2023-05-10T05:29:47.362Z,0
2023-05-10T05:30:19.568Z,0
2023-05-10T05:30:42.151Z,0
2023-05-10T05:31:04.552Z,0
2023-05-10T05:31:39.797Z,0
2023-05-10T05:32:11.811Z,0
2023-05-10T05:32:43.638Z,0
2023-05-10T05:33:17.985Z,0
2023-05-10T05:33:49.970Z,0
2023-05-10T05:34:19.333Z,0
2023-05-10T05:34:42.568Z,0
2023-05-10T05:35:05.089Z,0
2023-05-10T05:35:39.427Z,0
2023-05-10T05:36:11.456Z,0
2023-05-10T05:36:43.468Z,0
2023-05-10T05:37:15.534Z,0
2023-05-10T05:37:47.407Z,0
2023-05-10T05:38:19.433Z,0
2023-05-10T05:38:42.241Z,0
2023-05-10T05:39:04.466Z,0
2023-05-10T05:39:39.408Z,0
2023-05-10T05:40:11.441Z,0
2023-05-10T05:40:43.420Z,0
2023-05-10T05:41:15.485Z,0
2023-05-10T05:41:47.518Z,0
2023-05-10T05:42:19.627Z,0
2023-05-10T05:42:42.134Z,0
2023-05-10T05:43:04.456Z,0
2023-05-10T05:43:39.287Z,0
2023-05-10T05:44:11.393Z,0
2023-05-10T05:44:43.490Z,0
2023-05-10T05:45:15.810Z,0
2023-05-10T05:45:47.378Z,0
2023-05-10T05:46:20.264Z,0
2023-05-10T05:46:42.238Z,0
2023-05-10T05:47:04.418Z,0
2023-05-10T05:47:39.888Z,0
2023-05-10T05:48:11.379Z,0
2023-05-10T05:48:44.693Z,0
2023-05-10T05:49:15.336Z,0
2023-05-10T05:49:47.665Z,0
2023-05-10T05:50:20.879Z,0
2023-05-10T05:50:42.448Z,0
2023-05-10T05:51:07.164Z,0
2023-05-10T05:51:39.423Z,0
2023-05-10T05:52:11.429Z,0
2023-05-10T05:52:43.403Z,0
2023-05-10T05:53:15.527Z,0
2023-05-10T05:53:47.637Z,0
2023-05-10T05:54:21.747Z,0
2023-05-10T05:54:42.100Z,0
2023-05-10T05:55:06.915Z,0
2023-05-10T05:55:39.698Z,0
2023-05-10T05:56:11.504Z,0
2023-05-10T05:56:43.617Z,0
2023-05-10T05:57:15.695Z,0
2023-05-10T05:57:47.621Z,0
2023-05-10T05:58:24.494Z,0
2023-05-10T05:58:44.163Z,0
2023-05-10T05:59:06.838Z,0
2023-05-10T05:59:39.351Z,0
2023-05-10T06:00:11.763Z,0
2023-05-10T06:00:43.522Z,0
2023-05-10T06:01:16.339Z,0
2023-05-10T06:01:50.955Z,0
2023-05-10T06:02:13.781Z,0
2023-05-10T06:02:47.484Z,0
2023-05-10T06:03:23.781Z,0
2023-05-10T06:03:49.037Z,0
2023-05-10T06:04:09.231Z,0
2023-05-10T06:04:44.814Z,0
2023-05-10T06:05:15.405Z,0
2023-05-10T06:05:50.252Z,0
2023-05-10T06:06:19.537Z,0
2023-05-10T06:06:42.145Z,0
2023-05-10T06:07:04.562Z,0
2023-05-10T06:07:39.607Z,0
2023-05-10T06:08:11.496Z,0
2023-05-10T06:08:43.441Z,0
2023-05-10T06:09:15.399Z,0
2023-05-10T06:09:47.498Z,0
2023-05-10T06:10:19.377Z,0
2023-05-10T06:10:42.502Z,0
2023-05-10T06:11:04.681Z,0
2023-05-10T06:11:39.517Z,0
2023-05-10T06:12:07.191Z,0
2023-05-10T06:12:43.961Z,0
2023-05-10T06:13:17.266Z,0
2023-05-10T06:13:47.665Z,0
2023-05-10T06:14:19.963Z,0
2023-05-10T06:14:42.463Z,0
2023-05-10T06:15:05.026Z,0
2023-05-10T06:15:41.630Z,0
2023-05-10T06:16:11.679Z,0
2023-05-10T06:16:43.996Z,0
2023-05-10T06:17:15.957Z,0
2023-05-10T06:17:55.398Z,0
2023-05-10T06:18:17.864Z,0
2023-05-10T06:18:55.636Z,0
2023-05-10T06:19:17.979Z,0
2023-05-10T06:19:47.297Z,0
2023-05-10T06:20:10.550Z,0
2023-05-10T06:20:43.701Z,0
2023-05-10T06:21:15.500Z,0
2023-05-10T06:21:47.381Z,0
2023-05-10T06:22:19.361Z,0
2023-05-10T06:22:42.121Z,0
2023-05-10T06:23:04.362Z,0
2023-05-10T06:23:40.329Z,0
2023-05-10T06:24:11.267Z,0
2023-05-10T06:24:47.037Z,0
2023-05-10T06:25:15.547Z,0
2023-05-10T06:25:48.016Z,0
2023-05-10T06:26:19.231Z,0
2023-05-10T06:26:42.261Z,0
2023-05-10T06:27:04.908Z,0
2023-05-10T06:27:39.729Z,0
2023-05-10T06:28:11.392Z,0
2023-05-10T06:28:43.219Z,0
2023-05-10T06:29:15.444Z,0
2023-05-10T06:29:49.202Z,0
2023-05-10T06:30:19.912Z,0
2023-05-10T06:30:42.355Z,0
2023-05-10T06:31:05.094Z,0
2023-05-10T06:31:45.183Z,0
2023-05-10T06:32:06.941Z,0
2023-05-10T06:32:43.360Z,0
2023-05-10T06:33:15.622Z,0
2023-05-10T06:33:47.642Z,0
2023-05-10T06:34:19.393Z,0
2023-05-10T06:34:42.323Z,0
2023-05-10T06:35:10.231Z,0
2023-05-10T06:35:39.434Z,0
2023-05-10T06:36:11.448Z,0
2023-05-10T06:36:43.800Z,0
2023-05-10T06:37:15.456Z,0
2023-05-10T06:37:47.448Z,0
2023-05-10T06:38:19.244Z,0
2023-05-10T06:38:42.118Z,0
2023-05-10T06:39:04.612Z,0
2023-05-10T06:39:39.512Z,0
2023-05-10T06:40:11.474Z,0
2023-05-10T06:40:43.331Z,0
2023-05-10T06:41:15.246Z,0
2023-05-10T06:41:47.537Z,0
2023-05-10T06:42:19.342Z,0
2023-05-10T06:42:42.172Z,0
2023-05-10T06:43:04.519Z,0
2023-05-10T06:43:39.250Z,0
2023-05-10T06:44:11.272Z,0
2023-05-10T06:44:43.316Z,0
2023-05-10T06:45:16.057Z,0
2023-05-10T06:45:47.426Z,0
2023-05-10T06:46:20.272Z,0
2023-05-10T06:46:42.487Z,0
2023-05-10T06:47:04.717Z,0
2023-05-10T06:47:39.627Z,0
2023-05-10T06:48:11.476Z,0
2023-05-10T06:48:43.841Z,0
2023-05-10T06:49:15.466Z,0
2023-05-10T06:49:48.415Z,0
2023-05-10T06:50:19.467Z,0
2023-05-10T06:50:42.283Z,0
2023-05-10T06:51:04.468Z,0
2023-05-10T06:51:39.494Z,0
2023-05-10T06:52:11.384Z,0
2023-05-10T06:52:44.157Z,0
2023-05-10T06:53:15.714Z,0
2023-05-10T06:53:47.438Z,0
2023-05-10T06:54:19.443Z,0
2023-05-10T06:54:42.252Z,0
2023-05-10T06:55:07.206Z,0
2023-05-10T06:55:39.697Z,0
2023-05-10T06:56:11.504Z,0
2023-05-10T06:56:43.487Z,0
2023-05-10T06:57:27.509Z,0
2023-05-10T06:57:47.599Z,0
2023-05-10T06:58:19.476Z,0
2023-05-10T06:58:42.398Z,0
2023-05-10T06:59:04.549Z,0
2023-05-10T06:59:39.948Z,0
2023-05-10T07:00:11.985Z,0
2023-05-10T07:00:43.855Z,0
2023-05-10T07:01:15.648Z,0
2023-05-10T07:01:42.968Z,0
2023-05-10T07:02:23.264Z,0
2023-05-10T07:02:47.389Z,0
2023-05-10T07:03:23.928Z,0
2023-05-10T07:03:46.351Z,0
2023-05-10T07:04:10.434Z,0
2023-05-10T07:04:44.042Z,0
2023-05-10T07:05:15.754Z,0
2023-05-10T07:05:47.584Z,0
2023-05-10T07:06:32.228Z,0
2023-05-10T07:06:42.990Z,0
2023-05-10T07:07:05.643Z,0
2023-05-10T07:07:39.547Z,0
2023-05-10T07:08:12.737Z,0
2023-05-10T07:08:46.876Z,0
2023-05-10T07:09:09.242Z,0
2023-05-10T07:09:47.549Z,0
2023-05-10T07:10:19.228Z,0
2023-05-10T07:10:42.651Z,0